createdAt,value
2017-08-12T00:01:03.144Z,78.30
2017-08-12T00:03:31.836Z,78.31
2017-08-12T00:06:00.526Z,78.46
2017-08-12T00:08:29.194Z,78.46
2017-08-12T00:10:57.886Z,78.29
2017-08-12T00:13:26.663Z,78.39
2017-08-12T00:15:55.315Z,78.35
2017-08-12T00:18:24.038Z,78.26
2017-08-12T00:20:52.980Z,78.30
2017-08-12T00:23:21.669Z,78.20
2017-08-12T00:25:50.415Z,78.22
2017-08-12T00:28:19.087Z,78.23
2017-08-12T00:30:47.807Z,78.29
2017-08-12T00:33:18.174Z,78.36
2017-08-12T00:35:46.900Z,78.31
2017-08-12T00:38:15.600Z,78.33
2017-08-12T00:40:44.339Z,78.42
2017-08-12T00:43:13.022Z,78.39
2017-08-12T00:45:41.828Z,78.41
2017-08-12T00:48:10.535Z,78.35
2017-08-12T00:50:39.369Z,78.34
2017-08-12T00:53:08.483Z,78.24
2017-08-12T00:55:38.134Z,78.26
2017-08-12T00:58:06.955Z,78.19
2017-08-12T01:00:36.284Z,78.21
2017-08-12T01:03:04.964Z,78.23
2017-08-12T01:05:33.673Z,78.27
2017-08-12T01:08:04.111Z,78.41
2017-08-12T01:10:32.880Z,78.61
2017-08-12T01:13:04.401Z,78.70
2017-08-12T01:15:33.039Z,78.71
2017-08-12T01:18:01.818Z,78.73
2017-08-12T01:20:30.530Z,78.85
2017-08-12T01:23:05.262Z,78.80
2017-08-12T01:25:33.898Z,78.66
2017-08-12T01:28:02.671Z,78.61
2017-08-12T01:30:31.335Z,78.73
2017-08-12T01:33:03.606Z,78.70
2017-08-12T01:35:32.291Z,78.66
2017-08-12T01:38:00.955Z,78.64
2017-08-12T01:40:29.648Z,78.60
2017-08-12T01:43:00.544Z,78.59
2017-08-12T01:45:29.504Z,78.62
2017-08-12T01:47:58.171Z,78.50
2017-08-12T01:50:26.950Z,78.61
2017-08-12T01:52:55.699Z,78.56
2017-08-12T01:55:24.435Z,78.61
2017-08-12T01:57:53.069Z,78.64
2017-08-12T02:00:21.882Z,78.65
2017-08-12T02:02:50.611Z,78.77
2017-08-12T02:05:19.706Z,78.97
2017-08-12T02:07:48.383Z,79.23
2017-08-12T02:10:17.160Z,79.14
2017-08-12T02:12:45.790Z,79.31
2017-08-12T02:15:15.510Z,79.71
2017-08-12T02:17:44.237Z,79.89
2017-08-12T02:20:12.971Z,80.90
2017-08-12T02:22:41.603Z,80.43
2017-08-12T02:25:10.618Z,80.55
2017-08-12T02:27:39.350Z,80.70
2017-08-12T02:30:08.078Z,81.47
2017-08-12T02:32:36.763Z,81.50
2017-08-12T02:35:05.511Z,81.98
2017-08-12T02:37:34.247Z,83.31
2017-08-12T02:40:03.780Z,82.86
2017-08-12T02:42:32.562Z,82.74
2017-08-12T02:45:01.267Z,83.60
2017-08-12T02:47:30.015Z,84.31
2017-08-12T02:49:58.876Z,84.20
2017-08-12T02:52:27.523Z,85.01
2017-08-12T02:54:56.208Z,84.34
2017-08-12T02:57:24.933Z,83.87
2017-08-12T02:59:53.665Z,85.01
2017-08-12T03:02:22.431Z,86.04
2017-08-12T03:04:51.361Z,85.55
2017-08-12T03:07:20.366Z,84.99
2017-08-12T03:09:49.122Z,86.79
2017-08-12T03:12:17.840Z,85.04
2017-08-12T03:14:47.443Z,85.97
2017-08-12T03:17:16.160Z,84.78
2017-08-12T03:19:44.823Z,85.00
2017-08-12T03:22:13.497Z,84.47
2017-08-12T03:24:42.185Z,84.58
2017-08-12T03:27:10.893Z,84.58
2017-08-12T03:29:39.535Z,84.90
2017-08-12T03:32:08.278Z,85.10
2017-08-12T03:34:37.000Z,84.62
2017-08-12T03:37:05.704Z,85.36
2017-08-12T03:39:34.392Z,84.48
2017-08-12T03:42:04.104Z,84.44
2017-08-12T03:44:32.815Z,84.82
2017-08-12T03:47:01.580Z,84.79
2017-08-12T03:49:31.407Z,85.13
2017-08-12T03:52:00.119Z,84.90
2017-08-12T03:54:28.830Z,85.30
2017-08-12T03:56:57.552Z,85.60
2017-08-12T03:59:26.205Z,84.63
2017-08-12T04:01:54.908Z,84.97
2017-08-12T04:04:23.629Z,85.28
2017-08-12T04:06:52.376Z,85.25
2017-08-12T04:09:21.318Z,85.75
2017-08-12T04:11:50.008Z,84.90
2017-08-12T04:14:18.778Z,85.61
2017-08-12T04:16:47.490Z,85.01
2017-08-12T04:19:17.175Z,85.18
2017-08-12T04:21:45.903Z,85.31
2017-08-12T04:24:14.392Z,84.99
2017-08-12T04:26:43.364Z,84.74
2017-08-12T04:29:12.071Z,85.85
2017-08-12T04:31:42.857Z,85.21
2017-08-12T04:34:11.586Z,86.21
2017-08-12T04:36:40.363Z,86.09
2017-08-12T04:39:09.135Z,84.91
2017-08-12T04:41:37.813Z,84.79
2017-08-12T04:44:06.559Z,85.43
2017-08-12T04:46:35.279Z,86.06
2017-08-12T04:49:03.989Z,86.20
2017-08-12T04:51:32.698Z,84.84
2017-08-12T04:54:01.410Z,84.99
2017-08-12T04:56:30.093Z,85.40
2017-08-12T04:58:58.866Z,85.37
2017-08-12T05:01:27.563Z,85.01
2017-08-12T05:03:56.266Z,85.54
2017-08-12T05:06:25.765Z,85.54
2017-08-12T05:08:54.591Z,85.17
2017-08-12T05:11:23.243Z,84.79
2017-08-12T05:13:52.009Z,84.44
2017-08-12T05:16:20.700Z,85.15
2017-08-12T05:18:49.363Z,85.82
2017-08-12T05:21:18.134Z,85.20
2017-08-12T05:23:47.029Z,85.74
2017-08-12T05:26:15.788Z,85.42
2017-08-12T05:28:44.373Z,85.55
2017-08-12T05:31:13.137Z,85.35
2017-08-12T05:33:41.764Z,85.80
2017-08-12T05:36:10.484Z,85.62
2017-08-12T05:38:39.168Z,85.25
2017-08-12T05:41:07.885Z,85.18
2017-08-12T05:43:36.586Z,85.37
2017-08-12T05:46:05.266Z,85.34
2017-08-12T05:48:34.009Z,85.43
2017-08-12T05:51:03.133Z,85.37
2017-08-12T05:53:31.851Z,85.48
2017-08-12T05:56:00.534Z,85.28
2017-08-12T05:58:29.267Z,85.58
2017-08-12T06:00:58.021Z,85.76
2017-08-12T06:03:26.672Z,85.69
2017-08-12T06:05:56.460Z,85.69
2017-08-12T06:08:25.174Z,85.98
2017-08-12T06:10:53.921Z,85.65
2017-08-12T06:13:22.618Z,85.61
2017-08-12T06:15:51.357Z,85.64
2017-08-12T06:18:20.085Z,85.54
2017-08-12T06:20:49.064Z,85.63
2017-08-12T06:23:17.726Z,85.96
2017-08-12T06:25:46.457Z,85.80
2017-08-12T06:28:15.142Z,85.32
2017-08-12T06:30:43.812Z,85.58
2017-08-12T06:33:12.527Z,85.83
2017-08-12T06:35:41.838Z,85.60
2017-08-12T06:38:10.539Z,85.26
2017-08-12T06:40:39.196Z,85.49
2017-08-12T06:43:07.970Z,85.51
2017-08-12T06:45:36.741Z,85.59
2017-08-12T06:48:05.785Z,85.19
2017-08-12T06:50:34.429Z,85.38
2017-08-12T06:53:03.572Z,85.47
2017-08-12T06:55:33.239Z,85.35
2017-08-12T06:58:01.985Z,85.34
2017-08-12T07:00:30.682Z,85.35
2017-08-12T07:03:02.739Z,85.34
2017-08-12T07:05:33.042Z,85.24
2017-08-12T07:08:01.716Z,84.79
2017-08-12T07:10:30.452Z,84.80
2017-08-12T07:13:00.318Z,85.09
2017-08-12T07:15:29.081Z,84.65
2017-08-12T07:17:57.848Z,84.69
2017-08-12T07:20:26.552Z,84.58
2017-08-12T07:22:55.321Z,84.66
2017-08-12T07:25:24.061Z,84.53
2017-08-12T07:27:52.800Z,84.61
2017-08-12T07:30:21.456Z,84.34
2017-08-12T07:32:50.246Z,84.36
2017-08-12T07:35:18.956Z,84.37
2017-08-12T07:37:47.707Z,84.59
2017-08-12T07:40:16.485Z,84.31
2017-08-12T07:42:45.224Z,84.57
2017-08-12T07:45:13.921Z,84.32
2017-08-12T07:47:42.407Z,84.32
2017-08-12T07:50:12.053Z,84.41
2017-08-12T07:52:40.854Z,84.12
2017-08-12T07:55:09.756Z,84.34
2017-08-12T07:57:38.443Z,84.23
2017-08-12T08:00:07.153Z,84.17
2017-08-12T08:02:36.206Z,84.35
2017-08-12T08:05:05.825Z,84.27
2017-08-12T08:07:34.547Z,84.13
2017-08-12T08:10:03.280Z,84.39
2017-08-12T08:12:31.937Z,84.06
2017-08-12T08:15:00.669Z,83.85
2017-08-12T08:17:29.306Z,84.14
2017-08-12T08:19:58.004Z,84.28
2017-08-12T08:22:26.701Z,84.14
2017-08-12T08:24:55.458Z,83.87
2017-08-12T08:27:24.188Z,83.86
2017-08-12T08:29:52.846Z,83.78
2017-08-12T08:32:21.558Z,83.60
2017-08-12T08:34:50.215Z,83.57
2017-08-12T08:37:18.933Z,83.49
2017-08-12T08:39:47.592Z,83.57
2017-08-12T08:42:16.307Z,83.19
2017-08-12T08:44:45.100Z,83.27
2017-08-12T08:47:13.791Z,83.51
2017-08-12T08:49:43.417Z,83.32
2017-08-12T08:52:12.117Z,83.31
2017-08-12T08:54:40.868Z,83.37
2017-08-12T08:57:09.538Z,83.29
2017-08-12T08:59:38.356Z,83.31
2017-08-12T09:02:07.069Z,83.20
2017-08-12T09:04:35.762Z,82.96
2017-08-12T09:07:04.581Z,82.88
2017-08-12T09:09:33.361Z,82.72
2017-08-12T09:12:02.236Z,82.69
2017-08-12T09:14:30.938Z,82.60
2017-08-12T09:16:59.734Z,82.53
2017-08-12T09:19:28.429Z,82.33
2017-08-12T09:21:57.293Z,82.34
2017-08-12T09:24:25.988Z,82.30
2017-08-12T09:26:54.711Z,82.08
2017-08-12T09:29:23.409Z,82.16
2017-08-12T09:31:52.173Z,81.84
2017-08-12T09:34:20.982Z,82.09
2017-08-12T09:36:49.693Z,82.18
2017-08-12T09:39:18.406Z,82.16
2017-08-12T09:41:47.168Z,81.90
2017-08-12T09:44:15.923Z,81.96
2017-08-12T09:46:44.575Z,82.13
2017-08-12T09:49:13.298Z,81.96
2017-08-12T09:51:42.310Z,81.87
2017-08-12T09:54:12.705Z,82.04
2017-08-12T09:56:41.490Z,81.99
2017-08-12T09:59:10.182Z,81.77
2017-08-12T10:01:38.830Z,81.99
2017-08-12T10:04:07.579Z,81.71
2017-08-12T10:06:36.302Z,81.84
2017-08-12T10:09:04.517Z,81.73
2017-08-12T10:11:33.662Z,81.69
2017-08-12T10:14:02.385Z,81.90
2017-08-12T10:16:31.097Z,81.77
2017-08-12T10:19:00.713Z,81.66
2017-08-12T10:21:29.552Z,81.65
2017-08-12T10:23:58.271Z,81.99
2017-08-12T10:26:27.122Z,81.85
2017-08-12T10:28:55.845Z,81.83
2017-08-12T10:31:24.593Z,81.85
2017-08-12T10:33:53.387Z,81.89
2017-08-12T10:36:22.084Z,81.82
2017-08-12T10:38:50.896Z,81.75
2017-08-12T10:41:19.584Z,81.84
2017-08-12T10:43:48.311Z,81.83
2017-08-12T10:46:17.039Z,81.69
2017-08-12T10:48:45.785Z,81.75
2017-08-12T10:51:14.534Z,81.66
2017-08-12T10:53:43.360Z,81.59
2017-08-12T10:56:12.133Z,81.62
2017-08-12T10:58:40.836Z,81.62
2017-08-12T11:01:09.597Z,81.44
2017-08-12T11:03:38.309Z,81.27
2017-08-12T11:06:07.100Z,81.37
2017-08-12T11:08:35.857Z,81.40
2017-08-12T11:11:04.579Z,81.36
2017-08-12T11:13:33.348Z,81.15
2017-08-12T11:16:02.173Z,81.14
2017-08-12T11:18:30.853Z,81.22
2017-08-12T11:20:59.615Z,81.11
2017-08-12T11:23:28.408Z,81.16
2017-08-12T11:25:56.820Z,81.17
2017-08-12T11:28:25.636Z,81.37
2017-08-12T11:30:55.126Z,81.22
2017-08-12T11:33:23.888Z,81.15
2017-08-12T11:35:52.491Z,81.07
2017-08-12T11:38:21.266Z,81.16
2017-08-12T11:40:49.924Z,81.21
2017-08-12T11:43:18.646Z,81.14
2017-08-12T11:45:47.617Z,80.99
2017-08-12T11:48:16.346Z,81.03
2017-08-12T11:50:44.840Z,81.11
2017-08-12T11:53:13.504Z,81.05
2017-08-12T11:55:42.356Z,81.16
2017-08-12T11:58:11.008Z,81.31
2017-08-12T12:03:09.144Z,81.18
2017-08-12T12:05:38.126Z,81.11
2017-08-12T12:08:06.944Z,81.13
2017-08-12T12:10:35.647Z,81.17
2017-08-12T12:13:04.311Z,81.19
2017-08-12T12:15:33.085Z,81.16
2017-08-12T12:18:01.867Z,81.15
2017-08-12T12:20:30.586Z,81.18
2017-08-12T12:23:02.711Z,81.39
2017-08-12T12:25:31.293Z,81.32
2017-08-12T12:28:00.049Z,81.37
2017-08-12T12:30:28.701Z,81.34
2017-08-12T12:32:57.926Z,81.40
2017-08-12T12:35:27.170Z,81.30
2017-08-12T12:37:55.859Z,81.28
2017-08-12T12:40:24.649Z,81.35
2017-08-12T12:42:53.314Z,81.34
2017-08-12T12:45:22.036Z,81.27
2017-08-12T12:47:50.765Z,81.22
2017-08-12T12:50:19.565Z,81.35
2017-08-12T12:52:48.266Z,81.35
2017-08-12T12:55:16.986Z,81.36
2017-08-12T12:57:45.694Z,81.36
2017-08-12T13:00:15.231Z,81.51
2017-08-12T13:02:44.028Z,81.53
2017-08-12T13:05:12.753Z,81.49
2017-08-12T13:07:41.911Z,81.52
2017-08-12T13:10:11.347Z,81.60
2017-08-12T13:12:40.274Z,81.47
2017-08-12T13:15:09.076Z,81.51
2017-08-12T13:17:37.867Z,81.40
2017-08-12T13:20:06.554Z,81.43
2017-08-12T13:22:35.330Z,81.34
2017-08-12T13:25:04.036Z,81.28
2017-08-12T13:27:33.003Z,81.21
2017-08-12T13:30:02.842Z,81.19
2017-08-12T13:32:31.304Z,81.18
2017-08-12T13:35:00.852Z,81.28
2017-08-12T13:37:29.558Z,81.28
2017-08-12T13:39:58.343Z,81.53
2017-08-12T13:42:27.969Z,81.43
2017-08-12T13:44:57.332Z,81.27
2017-08-12T13:47:26.388Z,81.47
2017-08-12T13:49:55.240Z,81.32
2017-08-12T13:52:25.319Z,81.40
2017-08-12T13:54:54.040Z,81.37
2017-08-12T13:57:23.475Z,81.24
2017-08-12T13:59:52.421Z,81.35
2017-08-12T14:02:21.527Z,81.22
2017-08-12T14:04:50.402Z,81.39
2017-08-12T14:07:19.413Z,81.30
2017-08-12T14:09:48.259Z,81.29
2017-08-12T14:12:17.361Z,81.34
2017-08-12T14:14:46.236Z,81.54
2017-08-12T14:17:15.266Z,81.45
2017-08-12T14:19:44.330Z,81.36
2017-08-12T14:22:13.309Z,81.44
2017-08-12T14:24:42.330Z,81.48
2017-08-12T14:27:11.337Z,81.52
2017-08-12T14:29:40.257Z,81.53
2017-08-12T14:32:09.364Z,81.36
2017-08-12T14:34:38.310Z,81.28
2017-08-12T14:37:07.270Z,81.38
2017-08-12T14:39:37.071Z,81.54
2017-08-12T14:42:05.970Z,81.63
2017-08-12T14:44:34.995Z,81.39
2017-08-12T14:47:04.021Z,81.64
2017-08-12T14:49:33.258Z,81.59
2017-08-12T14:52:02.285Z,81.53
2017-08-12T14:54:31.295Z,81.56
2017-08-12T14:57:00.342Z,81.48
2017-08-12T14:59:29.165Z,81.64
2017-08-12T15:01:58.168Z,81.80
2017-08-12T15:04:27.269Z,81.64
2017-08-12T15:06:56.265Z,81.71
2017-08-12T15:09:25.342Z,81.67
2017-08-12T15:11:54.850Z,81.69
2017-08-12T15:14:23.833Z,81.55
2017-08-12T15:16:52.660Z,81.49
2017-08-12T15:19:22.057Z,81.52
2017-08-12T15:21:51.097Z,81.83
2017-08-12T15:24:20.110Z,81.73
2017-08-12T15:26:49.053Z,81.62
2017-08-12T15:29:18.089Z,81.69
2017-08-12T15:31:46.881Z,81.85
2017-08-12T15:34:16.144Z,82.05
2017-08-12T15:36:45.848Z,81.73
2017-08-12T15:39:14.901Z,81.96
2017-08-12T15:41:43.860Z,82.04
2017-08-12T15:44:12.852Z,82.06
2017-08-12T15:46:41.853Z,81.81
2017-08-12T15:49:11.100Z,81.87
2017-08-12T15:51:40.810Z,81.91
2017-08-12T15:54:09.624Z,81.74
2017-08-12T15:56:38.502Z,81.97
2017-08-12T15:59:07.106Z,81.65
2017-08-12T16:01:35.981Z,81.84
2017-08-12T16:04:05.053Z,81.81
2017-08-12T16:06:33.848Z,81.76
2017-08-12T16:09:02.321Z,81.92
2017-08-12T16:11:31.009Z,81.97
2017-08-12T16:13:59.768Z,81.87
2017-08-12T16:16:29.075Z,81.99
2017-08-12T16:18:58.243Z,82.26
2017-08-12T16:21:27.195Z,82.41
2017-08-12T16:23:55.881Z,82.13
2017-08-12T16:26:24.539Z,82.21
2017-08-12T16:28:53.471Z,82.32
2017-08-12T16:31:22.615Z,82.53
2017-08-12T16:33:51.537Z,82.42
2017-08-12T16:36:20.661Z,82.55
2017-08-12T16:38:49.631Z,82.51
2017-08-12T16:41:18.736Z,82.86
2017-08-12T16:43:47.697Z,82.94
2017-08-12T16:46:16.657Z,82.75
2017-08-12T16:48:45.660Z,82.72
2017-08-12T16:51:14.689Z,82.78
2017-08-12T16:53:43.663Z,83.01
2017-08-12T16:56:12.608Z,82.91
2017-08-12T16:58:41.460Z,82.68
2017-08-12T17:01:10.583Z,83.05
2017-08-12T17:03:39.602Z,82.82
2017-08-12T17:06:08.599Z,82.90
2017-08-12T17:08:37.675Z,82.84
2017-08-12T17:11:06.693Z,82.78
2017-08-12T17:13:35.602Z,82.85
2017-08-12T17:16:04.445Z,82.90
2017-08-12T17:18:33.476Z,82.75
2017-08-12T17:21:02.379Z,82.94
2017-08-12T17:23:31.139Z,82.94
2017-08-12T17:26:00.783Z,82.88
2017-08-12T17:28:30.453Z,82.99
2017-08-12T17:30:59.566Z,82.76
2017-08-12T17:33:28.042Z,82.77
2017-08-12T17:35:57.746Z,82.88
2017-08-12T17:38:26.440Z,82.83
2017-08-12T17:40:55.253Z,82.76
2017-08-12T17:43:24.466Z,82.85
2017-08-12T17:45:53.243Z,82.90
2017-08-12T17:48:22.273Z,82.98
2017-08-12T17:50:51.375Z,82.97
2017-08-12T17:53:20.098Z,82.95
2017-08-12T17:55:48.838Z,83.00
2017-08-12T17:58:17.681Z,83.13
2017-08-12T18:00:46.649Z,83.22
2017-08-12T18:03:15.587Z,82.94
2017-08-12T18:05:44.289Z,82.83
2017-08-12T18:08:13.079Z,83.03
2017-08-12T18:10:42.181Z,83.18
2017-08-12T18:13:11.768Z,82.88
2017-08-12T18:15:40.524Z,83.03
2017-08-12T18:18:09.635Z,82.90
2017-08-12T18:20:38.595Z,83.18
2017-08-12T18:23:07.448Z,83.07
2017-08-12T18:25:36.313Z,83.17
2017-08-12T18:28:05.157Z,83.27
2017-08-12T18:30:33.939Z,83.14
2017-08-12T18:33:06.767Z,83.37
2017-08-12T18:35:35.490Z,83.09
2017-08-12T18:38:04.206Z,83.07
2017-08-12T18:40:32.969Z,83.37
2017-08-12T18:43:04.614Z,83.10
2017-08-12T18:45:36.410Z,83.25
2017-08-12T18:48:06.311Z,83.27
2017-08-12T18:50:35.355Z,82.95
2017-08-12T18:53:07.082Z,82.89
2017-08-12T18:55:36.168Z,82.75
2017-08-12T18:58:05.763Z,82.85
2017-08-12T19:00:34.647Z,82.63
2017-08-12T19:03:06.328Z,82.60
2017-08-12T19:05:35.278Z,82.55
2017-08-12T19:08:04.038Z,82.66
2017-08-12T19:10:32.823Z,82.45
2017-08-12T19:13:05.300Z,82.44
2017-08-12T19:15:34.044Z,82.27
2017-08-12T19:18:03.831Z,82.35
2017-08-12T19:20:32.630Z,82.23
2017-08-12T19:23:04.143Z,82.24
2017-08-12T19:25:33.245Z,82.23
2017-08-12T19:28:02.120Z,82.22
2017-08-12T19:30:30.851Z,82.21
2017-08-12T19:33:01.531Z,82.16
2017-08-12T19:35:31.163Z,82.05
2017-08-12T19:37:59.835Z,81.95
2017-08-12T19:40:28.539Z,81.91
2017-08-12T19:42:57.269Z,81.82
2017-08-12T19:45:26.235Z,81.85
2017-08-12T19:47:55.136Z,81.86
2017-08-12T19:50:23.859Z,81.75
2017-08-12T19:52:52.512Z,81.83
2017-08-12T19:55:22.233Z,81.83
2017-08-12T19:57:51.008Z,81.74
2017-08-12T20:00:19.733Z,81.80
2017-08-12T20:02:49.503Z,81.85
2017-08-12T20:05:18.315Z,81.81
2017-08-12T20:07:47.107Z,81.83
2017-08-12T20:10:20.282Z,81.85
2017-08-12T20:12:48.961Z,81.89
2017-08-12T20:15:17.936Z,81.83
2017-08-12T20:17:46.832Z,81.81
2017-08-12T20:20:15.408Z,81.87
2017-08-12T20:22:44.203Z,81.79
2017-08-12T20:25:12.923Z,81.83
2017-08-12T20:27:41.741Z,81.89
2017-08-12T20:30:10.458Z,81.93
2017-08-12T20:32:39.214Z,82.02
2017-08-12T20:35:07.870Z,82.04
2017-08-12T20:37:37.531Z,82.02
2017-08-12T20:40:06.276Z,82.16
2017-08-12T20:42:35.006Z,82.08
2017-08-12T20:45:03.679Z,82.27
2017-08-12T20:47:32.696Z,82.23
2017-08-12T20:50:03.095Z,82.11
2017-08-12T20:52:31.882Z,82.31
2017-08-12T20:55:00.624Z,82.57
2017-08-12T20:57:30.419Z,82.67
2017-08-12T20:59:59.053Z,82.52
2017-08-12T21:02:28.299Z,82.59
2017-08-12T21:04:57.008Z,82.68
2017-08-12T21:07:25.672Z,82.50
2017-08-12T21:09:54.533Z,82.69
2017-08-12T21:12:23.200Z,82.59
2017-08-12T21:14:51.936Z,82.53
2017-08-12T21:17:20.647Z,82.62
2017-08-12T21:19:49.072Z,82.51
2017-08-12T21:22:18.741Z,82.52
2017-08-12T21:24:47.515Z,82.51
2017-08-12T21:27:16.392Z,82.70
2017-08-12T21:29:45.099Z,82.72
2017-08-12T21:32:13.574Z,82.98
2017-08-12T21:34:43.768Z,83.03
2017-08-12T21:37:12.492Z,82.83
2017-08-12T21:39:42.361Z,82.92
2017-08-12T21:42:11.366Z,83.18
2017-08-12T21:44:40.023Z,83.23
2017-08-12T21:47:09.694Z,83.11
2017-08-12T21:49:39.219Z,83.32
2017-08-12T21:52:07.770Z,83.37
2017-08-12T21:54:36.868Z,83.33
2017-08-12T21:57:05.675Z,83.33
2017-08-12T21:59:35.010Z,83.33
2017-08-12T22:02:03.714Z,83.30
2017-08-12T22:04:32.530Z,83.36
2017-08-12T22:07:01.227Z,83.34
2017-08-12T22:09:30.005Z,83.34
2017-08-12T22:11:59.602Z,83.25
2017-08-12T22:14:28.270Z,83.15
2017-08-12T22:16:57.952Z,83.14
2017-08-12T22:19:26.773Z,83.15
2017-08-12T22:21:56.287Z,83.03
2017-08-12T22:24:25.037Z,83.03
2017-08-12T22:26:54.270Z,83.14
2017-08-12T22:29:23.005Z,83.03
2017-08-12T22:31:51.721Z,83.16
2017-08-12T22:34:20.457Z,83.17
2017-08-12T22:36:49.218Z,83.14
2017-08-12T22:39:17.927Z,83.10
2017-08-12T22:41:47.411Z,83.09
2017-08-12T22:44:16.172Z,83.21
2017-08-12T22:46:44.853Z,83.01
2017-08-12T22:49:13.705Z,83.23
2017-08-12T22:51:43.251Z,83.13
2017-08-12T22:54:11.997Z,83.22
2017-08-12T22:56:40.780Z,83.20
2017-08-12T22:59:09.589Z,83.25
2017-08-12T23:01:38.340Z,83.31
2017-08-12T23:04:06.991Z,83.40
2017-08-12T23:06:35.992Z,83.43
2017-08-12T23:09:04.039Z,83.52
2017-08-12T23:11:32.791Z,83.36
2017-08-12T23:14:01.448Z,83.28
2017-08-12T23:16:30.493Z,83.30
2017-08-12T23:18:59.196Z,83.17
2017-08-12T23:21:27.670Z,83.14
2017-08-12T23:23:56.384Z,83.11
2017-08-12T23:26:25.091Z,83.15
2017-08-12T23:28:53.936Z,83.23
2017-08-12T23:31:23.394Z,83.28
2017-08-12T23:33:52.139Z,83.38
2017-08-12T23:36:20.808Z,83.42
2017-08-12T23:38:49.511Z,83.46
2017-08-12T23:41:18.201Z,83.63
2017-08-12T23:43:46.977Z,83.67
2017-08-12T23:46:15.443Z,83.76
2017-08-12T23:48:43.955Z,83.77
2017-08-12T23:51:12.710Z,83.79
2017-08-12T23:53:41.487Z,83.82
2017-08-12T23:56:10.125Z,83.66
2017-08-12T23:58:38.897Z,83.93
